Impacts METAR Board
IDs:

KLGA - New York/La Guardia, NY, US

Updated at: 2000 UTC 16 Aug 2018
Potential Impact None Slight Moderate High
Time 16/08Z 16/09Z 16/10Z 16/11Z 16/12Z 16/13Z 16/14Z 16/15Z 16/16Z 16/17Z 16/18Z 16/19Z 16/20Z
Temp81 80 79 79 80 81 82 84 87 89 91 92 92
Dewpt69 69 69 68 67 66 66 67 66 65 63 61 62
Altim29.98 29.99 30.01 30.02 30.04 30.05 30.05 30.06 30.06 30.05 30.04 30.04 30.03
VIS10 10 10 10 10 10 10 10 10 10 10 10 10
CIG250 250 -- -- 250 250 -- -- -- -- -- -- --
CoverBKNBKNSCTSCTBKNBKNSCTSCTSCTFEWFEWFEWFEW
FltCatVFRVFRVFRVFRVFRVFRVFRVFRVFRVFRVFRVFRVFR
WX--------------------------
WDir2900320310310320330310310310290260290
WSpd5 3 7 7 9 8 9 7 7 6 7 12 8
WGst-- -- -- -- -- -- -- -- -- -- 16 15 --
Raw hourly METARs
KLGA 160751Z 29005KT 10SM BKN250 27/21 A2998 RMK AO2 SLP152 T02720206
KLGA 160851Z VRB03KT 10SM BKN250 27/21 A2999 RMK AO2 SLP155 T02670206 53008
KLGA 160951Z 32007KT 10SM SCT250 26/21 A3001 RMK AO2 SLP161 T02610206
KLGA 161051Z 31007KT 10SM SCT250 26/20 A3002 RMK AO2 SLP167 T02610200
KLGA 161151Z 31009KT 10SM BKN250 27/19 A3004 RMK AO2 SLP171 T02670194 10283 20261 51016
KLGA 161251Z 32008KT 10SM BKN250 27/19 A3005 RMK AO2 SLP176 T02720189
KLGA 161351Z 33009KT 10SM SCT250 28/19 A3005 RMK AO2 SLP177 T02780189
KLGA 161451Z 31007KT 10SM SCT250 29/19 A3006 RMK AO2 SLP179 T02890194 51007
KLGA 161551Z 31007KT 10SM FEW050 SCT250 31/19 A3006 RMK AO2 SLP178 T03060189
KLGA 161651Z 31006KT 10SM FEW050 FEW250 32/18 A3005 RMK AO2 SLP174 T03170183
KLGA 161751Z 29007G16KT 10SM FEW050 FEW250 33/17 A3004 RMK AO2 SLP173 T03280172 10328 20267 58006
KLGA 161851Z 26012G15KT 10SM FEW050 FEW250 33/16 A3004 RMK AO2 SLP171 T03330161
KLGA 161951Z 29008KT 10SM FEW060 FEW250 33/17 A3003 RMK AO2 SLP167 T03330167



Page loaded:  20:20 UTC  |   01:20 PM Pacific  |   02:20 PM Mountain  |   03:20 PM Central  |   04:20 PM Eastern

 

ADVISORIES

FORECASTS

FORECASTS

OBSERVATIONS

USER TOOLS

ABOUT US